Time;durP1;ratioP1;P1;durP2;ratioP2;P2;SDS_P1;SDS_P2;PMS_P1;PMS_P2;Temp;Humidity;BMP_temperature;BMP_pressure;BME280_temperature;BME280_humidity;BME280_pressure;Samples;Min_cycle;Max_cycle;Signal;HPM_P1;HPM_P2
2023/09/01 00:01:29;;;;;;;2.30;0.50;;;;;;;12.55;100.00;100702.72;5096284;28;20463;-69
2023/09/01 00:03:55;;;;;;;2.20;0.50;;;;;;;12.53;100.00;100704.16;5095713;28;20459;-69
2023/09/01 00:06:22;;;;;;;2.33;0.70;;;;;;;12.51;100.00;100701.72;5095380;28;20464;-69
2023/09/01 00:08:49;;;;;;;3.13;0.77;;;;;;;12.48;100.00;100706.97;5095699;28;20476;-69
2023/09/01 00:11:16;;;;;;;2.17;0.60;;;;;;;12.49;100.00;100700.47;5095685;28;20445;-69
2023/09/01 00:13:43;;;;;;;2.40;0.87;;;;;;;12.45;100.00;100707.63;5095671;28;20444;-69
2023/09/01 00:16:10;;;;;;;2.10;0.60;;;;;;;12.46;100.00;100717.38;5095507;28;20484;-69
2023/09/01 00:18:37;;;;;;;2.43;0.73;;;;;;;12.48;100.00;100717.84;5095590;28;20447;-69
2023/09/01 00:21:04;;;;;;;3.00;0.87;;;;;;;12.49;100.00;100706.69;5095565;28;20432;-69
2023/09/01 00:23:31;;;;;;;2.60;0.70;;;;;;;12.53;100.00;100709.59;5095474;28;20440;-69
2023/09/01 00:25:59;;;;;;;3.60;1.20;;;;;;;12.49;100.00;100708.59;5095382;28;20488;-69
2023/09/01 00:28:26;;;;;;;2.30;0.70;;;;;;;12.46;100.00;100715.44;5095413;28;20523;-69
2023/09/01 00:30:55;;;;;;;2.20;0.50;;;;;;;12.45;100.00;100715.78;5095260;28;20561;-69
2023/09/01 00:33:24;;;;;;;3.47;0.80;;;;;;;12.43;100.00;100716.06;5095260;28;20527;-69
2023/09/01 00:35:52;;;;;;;2.93;0.77;;;;;;;12.47;100.00;100718.97;5095228;28;20461;-69
2023/09/01 00:38:19;;;;;;;2.50;0.87;;;;;;;12.43;100.00;100716.06;5095448;28;20436;-69
2023/09/01 00:40:47;;;;;;;2.70;0.80;;;;;;;12.40;100.00;100707.75;5095259;28;20485;-69
2023/09/01 00:43:13;;;;;;;2.37;0.70;;;;;;;12.36;100.00;100711.06;5095109;28;20441;-69
2023/09/01 00:45:39;;;;;;;2.43;0.70;;;;;;;12.34;100.00;100710.56;5094986;28;20456;-69
2023/09/01 00:48:07;;;;;;;3.40;1.10;;;;;;;12.38;100.00;100708.03;5094708;28;20517;-69
2023/09/01 00:50:36;;;;;;;2.83;0.80;;;;;;;12.38;100.00;100713.47;5094930;28;20223;-69
2023/09/01 00:53:04;;;;;;;2.30;0.77;;;;;;;12.41;100.00;100712.06;5094887;28;20443;-69
2023/09/01 00:55:33;;;;;;;2.27;0.70;;;;;;;12.36;100.00;100711.06;5094458;28;21214;-69
2023/09/01 00:58:00;;;;;;;2.60;0.80;;;;;;;12.32;100.00;100715.53;5094414;28;20932;-69
2023/09/01 01:00:27;;;;;;;2.20;0.57;;;;;;;12.29;100.00;100718.84;5094090;28;20464;-69
2023/09/01 01:02:54;;;;;;;2.90;0.80;;;;;;;12.28;100.00;100711.03;5094457;28;20447;-69
2023/09/01 01:05:26;;;;;;;2.50;0.80;;;;;;;12.28;100.00;100717.25;5094577;28;20463;-69
2023/09/01 01:08:00;;;;;;;2.30;0.80;;;;;;;12.27;100.00;100717.56;5094369;28;20452;-69
2023/09/01 01:10:35;;;;;;;3.63;1.00;;;;;;;12.26;100.00;100724.91;5094498;28;20464;-69
2023/09/01 01:13:10;;;;;;;2.87;1.07;;;;;;;12.27;100.00;100717.56;5094530;28;20431;-69
2023/09/01 01:15:39;;;;;;;2.27;0.70;;;;;;;12.26;100.00;100716.78;5094121;28;20895;-69
2023/09/01 01:18:11;;;;;;;3.27;0.80;;;;;;;12.26;100.00;100716.78;5094115;28;20445;-69
2023/09/01 01:20:41;;;;;;;2.40;0.87;;;;;;;12.23;100.00;100719.28;5094526;28;20444;-69
2023/09/01 01:23:11;;;;;;;2.10;0.60;;;;;;;12.18;100.00;100720.22;5094480;28;20424;-69
2023/09/01 01:25:38;;;;;;;2.47;0.50;;;;;;;12.16;100.00;100717.00;5094294;28;20467;-69
2023/09/01 01:28:08;;;;;;;2.40;0.90;;;;;;;12.18;100.00;100722.13;5094037;28;20515;-69
2023/09/01 01:30:35;;;;;;;2.50;1.00;;;;;;;12.12;100.00;100721.44;5093794;28;20511;-69
2023/09/01 01:33:02;;;;;;;2.40;0.90;;;;;;;12.13;100.00;100717.63;5094179;28;20531;-69
2023/09/01 01:35:35;;;;;;;2.80;0.87;;;;;;;12.19;100.00;100716.38;5093728;28;20499;-69
2023/09/01 01:38:14;;;;;;;3.20;1.00;;;;;;;12.20;100.00;100714.47;5094142;28;20435;-69
2023/09/01 01:40:46;;;;;;;2.50;0.80;;;;;;;12.18;100.00;100711.28;5093813;28;20988;-69
2023/09/01 01:43:15;;;;;;;3.03;1.37;;;;;;;12.15;100.00;100706.44;5093818;28;20524;-69
2023/09/01 01:45:44;;;;;;;2.60;0.80;;;;;;;12.15;100.00;100707.25;5093621;28;20972;-69
2023/09/01 01:48:11;;;;;;;2.40;0.80;;;;;;;12.13;100.00;100712.19;5093966;28;20528;-69
2023/09/01 01:50:37;;;;;;;5.43;1.17;;;;;;;12.04;100.00;100708.59;5093869;28;20574;-69
2023/09/01 01:53:05;;;;;;;3.00;0.83;;;;;;;12.02;100.00;100708.09;5093576;28;20838;-69
2023/09/01 01:55:33;;;;;;;2.50;0.70;;;;;;;11.99;100.00;100716.84;5093812;28;20457;-69
2023/09/01 01:58:00;;;;;;;2.70;0.90;;;;;;;12.01;100.00;100714.66;5093819;28;20459;-69
2023/09/01 02:00:27;;;;;;;2.47;0.90;;;;;;;12.06;100.00;100719.97;5093800;28;20806;-69
2023/09/01 02:02:54;;;;;;;2.20;0.70;;;;;;;12.06;100.00;100715.34;5094053;28;20448;-69
2023/09/01 02:05:21;;;;;;;2.40;0.73;;;;;;;12.08;100.00;100715.00;5093391;28;21036;-69
2023/09/01 02:07:47;;;;;;;3.23;1.30;;;;;;;12.02;100.00;100711.63;5093417;28;20467;-68
2023/09/01 02:10:14;;;;;;;3.67;1.40;;;;;;;12.06;100.00;100711.81;5093564;28;20576;-68
2023/09/01 02:12:42;;;;;;;2.23;0.70;;;;;;;12.09;100.00;100708.50;5093413;28;20535;-68
2023/09/01 02:15:10;;;;;;;4.20;0.70;;;;;;;12.07;100.00;100713.41;5093911;28;20496;-68
2023/09/01 02:17:37;;;;;;;3.03;1.10;;;;;;;12.05;100.00;100705.59;5093791;28;20552;-68
2023/09/01 02:20:16;;;;;;;2.53;0.87;;;;;;;12.07;100.00;100716.13;5094410;28;20437;-68
2023/09/01 02:22:44;;;;;;;3.93;1.23;;;;;;;12.08;100.00;100720.44;5093030;28;20460;-68
2023/09/01 02:25:12;;;;;;;2.53;1.00;;;;;;;12.03;100.00;100715.94;5093035;28;20972;-68
2023/09/01 02:27:40;;;;;;;2.60;0.73;;;;;;;11.98;100.00;100705.19;5093601;28;20444;-68
2023/09/01 02:30:10;;;;;;;3.27;1.07;;;;;;;12.01;100.00;100709.22;5093115;28;20857;-68
2023/09/01 02:32:38;;;;;;;3.03;1.40;;;;;;;12.01;100.00;100718.16;5093713;28;20995;-68
2023/09/01 02:35:08;;;;;;;2.80;1.17;;;;;;;11.99;100.00;100727.72;5094185;28;20443;-68
2023/09/01 02:37:35;;;;;;;2.40;0.90;;;;;;;11.94;100.00;100720.50;5094390;28;20443;-68
2023/09/01 02:40:01;;;;;;;2.90;1.10;;;;;;;11.95;100.00;100726.72;5093331;28;20924;-68
2023/09/01 02:42:36;;;;;;;3.47;1.03;;;;;;;11.96;100.00;100725.63;5093416;28;20416;-68
2023/09/01 02:45:03;;;;;;;2.30;0.80;;;;;;;11.94;100.00;100727.84;5093425;28;20527;-68
2023/09/01 02:47:31;;;;;;;2.20;0.70;;;;;;;11.96;100.00;100722.91;5093255;28;20443;-68
2023/09/01 02:49:58;;;;;;;2.93;1.00;;;;;;;11.91;100.00;100723.84;5093324;28;20572;-68
2023/09/01 02:52:24;;;;;;;3.30;1.13;;;;;;;11.95;100.00;100732.16;5093203;28;20436;-68
2023/09/01 02:54:51;;;;;;;2.17;0.70;;;;;;;11.98;100.00;100735.06;5093441;28;20475;-68
2023/09/01 02:57:17;;;;;;;2.70;1.03;;;;;;;11.97;100.00;100736.19;5093294;28;20481;-68
2023/09/01 02:59:44;;;;;;;3.13;1.30;;;;;;;11.98;100.00;100734.25;5093213;28;20483;-68
2023/09/01 03:02:11;;;;;;;3.03;1.10;;;;;;;11.95;100.00;100734.88;5092909;28;20437;-68
2023/09/01 03:04:41;;;;;;;3.23;1.33;;;;;;;11.97;100.00;100732.66;5093148;28;20439;-68
2023/09/01 03:07:07;;;;;;;3.27;1.07;;;;;;;11.94;100.00;100733.28;5092786;28;20475;-68
2023/09/01 03:09:34;;;;;;;2.30;1.00;;;;;;;11.93;100.00;100737.09;5093046;28;20440;-68
2023/09/01 03:12:01;;;;;;;3.30;1.03;;;;;;;11.92;100.00;100740.94;5093031;28;20472;-68
2023/09/01 03:14:27;;;;;;;2.60;0.83;;;;;;;11.79;100.00;100743.34;5093051;28;20528;-68
2023/09/01 03:16:54;;;;;;;2.77;1.10;;;;;;;11.76;100.00;100741.22;5092747;28;20903;-68
2023/09/01 03:19:21;;;;;;;2.43;1.00;;;;;;;11.73;100.00;100739.13;5092706;28;20440;-68
2023/09/01 03:21:49;;;;;;;3.00;1.07;;;;;;;11.69;100.00;100745.47;5093403;28;20990;-69
2023/09/01 03:24:15;;;;;;;2.93;1.20;;;;;;;11.60;100.00;100738.06;5098059;28;20475;-68
2023/09/01 03:26:42;;;;;;;2.90;1.23;;;;;;;11.66;100.00;100746.88;5096562;28;20539;-68
2023/09/01 03:29:08;;;;;;;3.23;1.20;;;;;;;11.71;100.00;100745.97;5096655;28;20512;-68
2023/09/01 03:31:35;;;;;;;2.77;1.10;;;;;;;11.71;100.00;100744.03;5096520;28;20586;-68
2023/09/01 03:34:03;;;;;;;2.40;0.80;;;;;;;11.71;100.00;100746.75;5096604;28;20472;-68
2023/09/01 03:36:29;;;;;;;2.40;0.80;;;;;;;11.71;100.00;100748.69;5096163;28;20462;-68
2023/09/01 03:38:59;;;;;;;2.70;0.90;;;;;;;11.69;100.00;100742.75;5096560;28;20519;-68
2023/09/01 03:41:26;;;;;;;2.57;1.00;;;;;;;11.68;100.00;100744.66;5096330;28;20498;-68
2023/09/01 03:43:52;;;;;;;2.87;1.17;;;;;;;11.71;100.00;100740.53;5096001;28;20949;-68
2023/09/01 03:46:19;;;;;;;2.87;1.10;;;;;;;11.69;100.00;100745.47;5096128;28;20499;-68
2023/09/01 03:48:46;;;;;;;3.13;1.10;;;;;;;11.63;100.00;100750.19;5096227;28;20464;-68
2023/09/01 03:51:17;;;;;;;3.10;1.13;;;;;;;11.61;100.00;100749.69;5096112;28;20571;-68
2023/09/01 03:53:44;;;;;;;4.60;2.00;;;;;;;11.62;100.00;100743.16;5096110;28;20420;-68
2023/09/01 03:56:15;;;;;;;3.07;1.37;;;;;;;11.66;100.00;100743.38;5095639;28;20981;-68
2023/09/01 03:58:42;;;;;;;2.90;1.40;;;;;;;11.63;100.00;100736.63;5096104;28;20416;-68
2023/09/01 04:01:09;;;;;;;2.90;1.37;;;;;;;11.63;100.00;100747.47;5095667;28;20473;-68
2023/09/01 04:03:36;;;;;;;3.50;1.40;;;;;;;11.58;100.00;100740.25;5096040;28;20432;-68
2023/09/01 04:06:03;;;;;;;3.20;1.40;;;;;;;11.51;100.00;100741.75;5096011;28;20461;-68
2023/09/01 04:08:30;;;;;;;2.70;1.27;;;;;;;11.49;100.00;100747.50;5095915;28;20462;-68
2023/09/01 04:10:56;;;;;;;2.10;0.70;;;;;;;11.46;100.00;100748.09;5095744;28;20476;-68
2023/09/01 04:13:24;;;;;;;4.30;1.57;;;;;;;11.42;100.00;100751.72;5095418;28;21019;-68
2023/09/01 04:15:51;;;;;;;6.80;1.07;;;;;;;11.34;100.00;100756.75;5095669;28;20499;-68
2023/09/01 04:18:18;;;;;;;2.67;1.00;;;;;;;11.32;100.00;100750.00;5095462;28;20531;-68
2023/09/01 04:20:48;;;;;;;3.43;1.33;;;;;;;11.31;100.00;100751.13;5095264;28;20889;-68
2023/09/01 04:23:15;;;;;;;2.53;1.27;;;;;;;11.33;100.00;100749.72;5095514;28;20805;-68
2023/09/01 04:25:44;;;;;;;5.13;1.60;;;;;;;11.39;100.00;100753.13;5095276;28;20551;-69
2023/09/01 04:28:10;;;;;;;3.07;0.90;;;;;;;11.45;100.00;100759.25;5095839;28;20447;-69
2023/09/01 04:30:38;;;;;;;4.10;1.47;;;;;;;11.46;100.00;100764.38;5095451;28;20574;-68
2023/09/01 04:33:05;;;;;;;3.10;1.30;;;;;;;11.47;100.00;100767.91;5095361;28;20516;-68
2023/09/01 04:35:32;;;;;;;3.13;1.17;;;;;;;11.44;100.00;100766.59;5095253;28;20539;-68
2023/09/01 04:37:58;;;;;;;2.83;1.00;;;;;;;11.39;100.00;100763.19;5095266;28;20523;-68
2023/09/01 04:40:25;;;;;;;3.10;1.10;;;;;;;11.36;100.00;100759.97;5095295;28;20467;-68
2023/09/01 04:42:51;;;;;;;5.13;1.30;;;;;;;11.34;100.00;100759.47;5094875;28;20441;-68
2023/09/01 04:45:18;;;;;;;5.27;1.30;;;;;;;11.35;100.00;100768.41;5095017;28;20543;-68
2023/09/01 04:47:46;;;;;;;2.20;0.80;;;;;;;11.33;100.00;100766.00;5095069;28;20523;-68
2023/09/01 04:50:13;;;;;;;2.70;1.40;;;;;;;11.33;100.00;100766.00;5096446;28;20993;-70
2023/09/01 04:52:39;;;;;;;3.07;1.30;;;;;;;11.37;100.00;100768.88;5096172;28;20523;-69
2023/09/01 04:55:08;;;;;;;2.90;1.20;;;;;;;11.36;100.00;100762.66;5095424;28;20492;-69
2023/09/01 04:57:34;;;;;;;3.13;1.10;;;;;;;11.36;100.00;100767.28;5095743;28;20441;-70
2023/09/01 05:00:01;;;;;;;3.33;1.93;;;;;;;11.35;100.00;100765.69;5095591;28;20876;-68
2023/09/01 05:02:28;;;;;;;2.90;1.20;;;;;;;11.42;100.00;100765.28;5094716;28;20440;-68
2023/09/01 05:04:56;;;;;;;3.10;1.23;;;;;;;11.47;100.00;100771.41;5094781;28;20440;-68
2023/09/01 05:07:23;;;;;;;2.90;1.03;;;;;;;11.51;100.00;100768.88;5094672;28;20428;-68
2023/09/01 05:09:50;;;;;;;3.10;1.37;;;;;;;11.55;100.00;100775.31;5094313;28;20451;-68
2023/09/01 05:12:16;;;;;;;2.40;0.73;;;;;;;11.58;100.00;100772.00;5094491;28;20571;-68
2023/09/01 05:14:43;;;;;;;2.60;1.07;;;;;;;11.67;100.00;100778.31;5094269;28;20493;-68
2023/09/01 05:17:10;;;;;;;3.20;1.63;;;;;;;11.72;100.00;100775.50;5094253;28;21067;-68
2023/09/01 05:19:36;;;;;;;3.20;1.23;;;;;;;11.77;100.00;100785.44;5094723;28;20444;-68
2023/09/01 05:22:04;;;;;;;3.10;1.20;;;;;;;11.80;100.00;100787.56;5094260;28;20451;-68
2023/09/01 05:24:31;;;;;;;2.73;1.23;;;;;;;11.88;100.00;100784.16;5094573;28;20460;-68
2023/09/01 05:26:57;;;;;;;3.73;1.40;;;;;;;11.91;100.00;100785.44;5094470;28;20461;-68
2023/09/01 05:29:24;;;;;;;4.67;1.40;;;;;;;11.93;100.00;100786.75;5094594;28;20437;-67
2023/09/01 05:31:51;;;;;;;3.90;1.53;;;;;;;11.98;100.00;100780.41;5093843;28;20490;-67
2023/09/01 05:34:18;;;;;;;3.97;1.20;;;;;;;12.02;100.00;100782.22;5093839;28;20440;-67
2023/09/01 05:36:44;;;;;;;2.40;0.93;;;;;;;12.08;100.00;100780.97;5094120;28;20807;-67
2023/09/01 05:39:12;;;;;;;2.90;1.23;;;;;;;12.15;100.00;100788.72;5094139;28;20533;-67
2023/09/01 05:41:39;;;;;;;3.17;1.30;;;;;;;12.20;100.00;100787.78;5094104;28;20437;-67
2023/09/01 05:44:06;;;;;;;3.03;1.43;;;;;;;12.15;100.00;100788.72;5094179;28;20452;-67
2023/09/01 05:46:32;;;;;;;3.87;1.57;;;;;;;12.21;100.00;100789.41;5093539;28;20456;-67
2023/09/01 05:48:59;;;;;;;3.97;1.87;;;;;;;12.31;100.00;100783.75;5093617;28;20950;-67
2023/09/01 05:51:26;;;;;;;2.30;0.80;;;;;;;12.36;100.00;100794.50;5093781;28;20488;-67
2023/09/01 05:53:52;;;;;;;2.30;0.90;;;;;;;12.38;100.00;100793.06;5093624;28;20914;-67
2023/09/01 05:56:20;;;;;;;3.10;1.13;;;;;;;12.44;100.00;100793.75;5093464;28;20839;-67
2023/09/01 05:58:47;;;;;;;2.67;1.00;;;;;;;12.54;100.00;100809.00;5093622;28;20996;-67
2023/09/01 06:01:14;;;;;;;2.83;1.20;;;;;;;12.59;100.00;100806.16;5093830;28;20428;-68
2023/09/01 06:03:41;;;;;;;2.93;1.13;;;;;;;12.68;100.00;100809.75;5093849;28;20440;-67
2023/09/01 06:06:09;;;;;;;3.27;1.53;;;;;;;12.75;100.00;100804.69;5093376;28;20471;-67
2023/09/01 06:08:35;;;;;;;4.20;1.77;;;;;;;12.83;100.00;100817.50;5093673;28;20535;-67
2023/09/01 06:11:04;;;;;;;2.63;1.00;;;;;;;12.91;100.00;100812.44;5093630;28;20491;-67
2023/09/01 06:13:32;;;;;;;3.10;1.47;;;;;;;12.95;100.00;100814.22;5093310;28;20862;-67
2023/09/01 06:15:58;;;;;;;3.50;1.00;;;;;;;13.04;100.00;100806.13;5093628;28;20484;-67
2023/09/01 06:18:25;;;;;;;3.17;1.20;;;;;;;13.12;100.00;100817.03;5093222;28;20479;-67
2023/09/01 06:20:52;;;;;;;3.30;1.43;;;;;;;13.19;100.00;100819.31;5093589;28;20537;-67
2023/09/01 06:23:18;;;;;;;3.90;1.33;;;;;;;13.26;100.00;100832.50;5093694;28;20468;-67
2023/09/01 06:25:45;;;;;;;5.77;1.50;;;;;;;13.29;100.00;100831.88;5093115;28;20492;-67
2023/09/01 06:28:13;;;;;;;3.50;1.60;;;;;;;13.30;100.00;100825.31;5093187;28;20468;-67
2023/09/01 06:30:42;;;;;;;3.80;1.57;;;;;;;13.37;100.00;100831.94;5092825;28;21019;-68
2023/09/01 06:33:09;;;;;;;2.80;1.20;;;;;;;13.45;100.00;100833.06;5093168;28;20440;-68
2023/09/01 06:35:36;;;;;;;2.70;1.17;;;;;;;13.55;100.00;100832.00;5093044;28;20521;-68
2023/09/01 06:38:05;;;;;;;5.90;1.97;;;;;;;13.62;100.00;100835.03;5093076;28;20447;-68
2023/09/01 06:40:32;;;;;;;3.97;1.63;;;;;;;13.67;100.00;100834.09;5093005;28;20436;-68
2023/09/01 06:42:59;;;;;;;3.70;1.43;;;;;;;13.73;100.00;100839.09;5093131;28;20469;-68
2023/09/01 06:45:26;;;;;;;4.53;1.60;;;;;;;13.78;100.00;100838.94;5092627;28;20467;-68
2023/09/01 06:47:56;;;;;;;3.60;1.53;;;;;;;13.87;100.00;100837.03;5093064;28;20432;-68
2023/09/01 06:50:22;;;;;;;3.10;1.40;;;;;;;13.91;100.00;100833.69;5093536;28;20440;-67
2023/09/01 06:52:49;;;;;;;7.93;2.17;;;;;;;13.95;100.00;100835.47;5092847;28;20476;-67
2023/09/01 06:55:16;;;;;;;3.07;1.53;;;;;;;14.02;100.00;100835.00;5093109;28;20544;-67
2023/09/01 06:57:42;;;;;;;2.80;1.27;;;;;;;14.07;100.00;100846.53;5094820;28;20523;-67
2023/09/01 07:00:11;;;;;;;4.10;1.70;;;;;;;14.19;100.00;100845.91;5096767;28;20485;-67
2023/09/01 07:02:38;;;;;;;2.93;1.23;;;;;;;14.28;99.97;100848.66;5097197;28;20479;-68
2023/09/01 07:05:06;;;;;;;3.97;1.50;;;;;;;14.32;100.00;100850.41;5096931;28;20440;-68
2023/09/01 07:07:33;;;;;;;2.67;0.90;;;;;;;14.42;98.48;100852.00;5096991;28;20540;-68
2023/09/01 07:09:59;;;;;;;3.50;1.43;;;;;;;14.48;99.02;100858.13;5096919;28;20511;-68
2023/09/01 07:12:26;;;;;;;3.30;1.07;;;;;;;14.59;99.00;100856.72;5096502;28;20512;-68
2023/09/01 07:14:53;;;;;;;3.43;1.40;;;;;;;14.70;99.33;100849.81;5096624;28;20472;-67
2023/09/01 07:17:21;;;;;;;3.20;1.30;;;;;;;14.77;99.12;100855.56;5096393;28;20813;-68
2023/09/01 07:19:48;;;;;;;3.40;1.73;;;;;;;14.87;99.17;100859.88;5096754;28;20471;-68
2023/09/01 07:22:16;;;;;;;3.30;1.67;;;;;;;14.95;97.79;100850.09;5096731;28;20634;-68
2023/09/01 07:24:43;;;;;;;2.70;1.00;;;;;;;15.02;97.59;100864.03;5096356;28;20428;-68
2023/09/01 07:27:09;;;;;;;2.97;1.20;;;;;;;15.07;96.71;100861.94;5096245;28;20468;-68
2023/09/01 07:29:36;;;;;;;4.13;1.53;;;;;;;15.18;95.76;100876.03;5096583;28;20437;-68
2023/09/01 07:32:03;;;;;;;4.30;1.80;;;;;;;15.30;94.45;100873.44;5096196;28;20579;-68
2023/09/01 07:34:30;;;;;;;2.87;1.20;;;;;;;15.39;94.64;100885.13;5096475;28;20458;-68
2023/09/01 07:36:57;;;;;;;2.70;1.20;;;;;;;15.49;93.62;100885.91;5096070;28;20460;-68
2023/09/01 07:39:25;;;;;;;3.10;1.17;;;;;;;15.55;93.26;100879.16;5096161;28;20854;-68
2023/09/01 07:41:51;;;;;;;2.83;1.07;;;;;;;15.55;94.85;100892.81;5096610;28;20519;-68
2023/09/01 07:44:20;;;;;;;3.10;1.37;;;;;;;15.61;94.90;100896.94;5096310;28;20468;-68
2023/09/01 07:46:46;;;;;;;4.07;1.77;;;;;;;15.60;93.54;100893.41;5096190;28;20460;-68
2023/09/01 07:49:13;;;;;;;4.40;1.70;;;;;;;15.64;94.91;100896.34;5096214;28;20432;-68
2023/09/01 07:51:40;;;;;;;3.93;1.03;;;;;;;15.74;94.31;100897.88;5096055;28;20518;-68
2023/09/01 07:54:07;;;;;;;2.77;0.90;;;;;;;15.80;94.27;100897.38;5095820;28;20468;-68
2023/09/01 07:56:35;;;;;;;3.30;1.33;;;;;;;15.86;94.07;100890.59;5095674;28;21014;-68
2023/09/01 07:59:02;;;;;;;4.00;1.30;;;;;;;15.94;93.42;100896.34;5095759;28;20479;-68
2023/09/01 08:01:29;;;;;;;3.60;1.30;;;;;;;16.00;92.68;100887.63;5095626;28;20844;-68
2023/09/01 08:03:59;;;;;;;3.23;1.33;;;;;;;16.05;91.74;100881.97;5095894;28;20476;-68
2023/09/01 08:06:26;;;;;;;3.30;1.03;;;;;;;16.05;92.18;100881.97;5095784;28;20464;-68
2023/09/01 08:08:52;;;;;;;3.03;1.27;;;;;;;16.03;93.27;100876.06;5095124;28;20928;-68
2023/09/01 08:11:19;;;;;;;4.63;1.57;;;;;;;16.07;93.93;100876.16;5095775;28;20436;-68
2023/09/01 08:13:47;;;;;;;2.93;0.97;;;;;;;16.15;94.15;100887.06;5095749;28;20446;-68
2023/09/01 08:18:46;;;;;;;4.63;1.47;;;;;;;16.42;93.39;100890.41;5113326;28;20464;-65
2023/09/01 08:21:12;;;;;;;3.00;1.10;;;;;;;16.51;91.37;100890.34;5116009;28;20475;-66
2023/09/01 08:23:40;;;;;;;3.20;1.10;;;;;;;16.56;91.31;100895.66;5116099;28;20431;-65
2023/09/01 08:26:07;;;;;;;3.27;1.30;;;;;;;16.69;91.67;100896.47;5115926;28;20459;-65
2023/09/01 08:28:34;;;;;;;4.03;1.83;;;;;;;16.76;90.46;100894.06;5115945;28;20459;-65
2023/09/01 08:31:02;;;;;;;2.67;0.60;;;;;;;16.83;90.16;100899.78;5115832;28;20424;-66
2023/09/01 08:33:29;;;;;;;2.77;1.23;;;;;;;16.89;89.67;100896.50;5115440;28;21003;-66
2023/09/01 08:35:56;;;;;;;3.60;1.07;;;;;;;16.96;90.19;100906.13;5115759;28;20873;-66
2023/09/01 08:38:22;;;;;;;3.93;1.70;;;;;;;16.94;89.86;100900.97;5115655;28;20526;-65
2023/09/01 08:40:49;;;;;;;3.40;1.73;;;;;;;17.02;89.54;100908.28;5115844;28;20520;-65
2023/09/01 08:43:16;;;;;;;2.90;1.30;;;;;;;17.13;89.60;100905.94;5115583;28;20438;-65
2023/09/01 08:45:43;;;;;;;2.80;1.10;;;;;;;17.18;87.71;100905.75;5115509;28;20466;-66
2023/09/01 08:48:12;;;;;;;2.87;1.30;;;;;;;17.28;87.44;100901.78;5115217;28;20435;-66
2023/09/01 08:50:39;;;;;;;2.50;0.90;;;;;;;17.32;88.89;100903.50;5115479;28;20435;-66
2023/09/01 08:53:06;;;;;;;3.23;1.40;;;;;;;17.33;88.88;100905.09;5115330;28;20927;-67
2023/09/01 08:55:33;;;;;;;4.43;1.03;;;;;;;17.43;89.00;100903.03;5115044;28;21011;-66
2023/09/01 08:57:59;;;;;;;2.80;1.07;;;;;;;17.56;83.62;100910.16;5115317;28;20522;-66
2023/09/01 09:00:26;;;;;;;2.20;0.80;;;;;;;17.61;78.86;100909.91;5115272;28;20848;-67
2023/09/01 09:02:53;;;;;;;2.27;0.83;;;;;;;17.64;80.33;100912.00;5114876;28;20434;-66
2023/09/01 09:05:22;;;;;;;3.00;1.40;;;;;;;17.74;79.52;100911.56;5114733;28;20998;-65
2023/09/01 09:07:58;;;;;;;2.70;0.90;;;;;;;17.75;78.11;100915.09;5115094;28;20443;-65
2023/09/01 09:10:34;;;;;;;3.03;0.70;;;;;;;17.86;76.58;100919.81;5115103;28;20426;-66
2023/09/01 09:13:01;;;;;;;2.90;0.67;;;;;;;17.96;74.35;100912.25;5114939;28;20879;-66
2023/09/01 09:15:28;;;;;;;2.40;0.80;;;;;;;17.94;76.93;100907.13;5114875;28;20490;-66
2023/09/01 09:17:54;;;;;;;2.40;0.63;;;;;;;18.04;75.66;100900.38;5114571;28;20969;-66
2023/09/01 09:20:23;;;;;;;2.77;1.10;;;;;;;18.11;75.35;100903.38;5114114;28;20436;-66
2023/09/01 09:22:51;;;;;;;3.03;0.60;;;;;;;18.22;76.79;100900.94;5114826;28;20435;-66
2023/09/01 09:25:25;;;;;;;2.80;0.90;;;;;;;18.31;75.60;100904.34;5114697;28;20492;-66
2023/09/01 09:27:52;;;;;;;2.30;0.70;;;;;;;18.43;74.28;100917.25;5114916;28;20766;-67
2023/09/01 09:30:19;;;;;;;2.10;0.60;;;;;;;18.51;73.76;100908.09;5114624;28;20523;-65
2023/09/01 09:32:45;;;;;;;2.07;0.60;;;;;;;18.59;73.74;100907.13;5114215;28;21010;-65
2023/09/01 09:35:13;;;;;;;3.37;1.00;;;;;;;18.67;69.73;100911.69;5114268;28;20980;-65
2023/09/01 09:37:42;;;;;;;2.30;0.63;;;;;;;18.56;71.40;100913.34;5114212;28;20440;-65
2023/09/01 09:40:14;;;;;;;3.40;0.90;;;;;;;18.62;70.27;100917.44;5114581;28;20513;-65
2023/09/01 09:42:41;;;;;;;2.07;0.67;;;;;;;18.65;71.56;100905.78;5114044;28;20463;-64
2023/09/01 09:45:23;;;;;;;2.60;0.83;;;;;;;18.66;71.78;100907.34;5114604;28;20455;-65
2023/09/01 09:47:51;;;;;;;2.50;0.77;;;;;;;18.82;70.99;100911.00;5114423;28;20424;-65
2023/09/01 09:50:18;;;;;;;2.13;0.77;;;;;;;18.90;71.89;100904.56;5113979;28;20526;-65
2023/09/01 09:52:49;;;;;;;2.40;0.87;;;;;;;18.94;71.61;100901.91;5114185;28;20485;-64
2023/09/01 09:55:23;;;;;;;2.37;0.70;;;;;;;19.01;72.25;100917.78;5114474;28;20435;-64
2023/09/01 09:57:52;;;;;;;2.20;0.60;;;;;;;19.11;69.33;100914.53;5114222;28;20503;-65
2023/09/01 10:00:21;;;;;;;2.60;0.67;;;;;;;19.26;70.99;100912.97;5114262;28;20859;-65
2023/09/01 10:02:53;;;;;;;2.10;0.60;;;;;;;19.42;72.82;100911.84;5114123;28;20919;-65
2023/09/01 10:05:22;;;;;;;2.83;1.10;;;;;;;19.63;65.64;100910.81;5114173;28;20546;-65
2023/09/01 10:07:51;;;;;;;2.53;0.83;;;;;;;19.74;70.17;100917.38;5114055;28;20530;-65
2023/09/01 10:10:18;;;;;;;2.10;0.70;;;;;;;19.87;65.83;100921.63;5114116;28;20436;-65
2023/09/01 10:12:45;;;;;;;2.30;0.70;;;;;;;19.94;65.99;100929.25;5114004;28;20510;-65
2023/09/01 10:15:14;;;;;;;2.20;0.70;;;;;;;19.88;64.82;100923.25;5113884;28;20467;-65
2023/09/01 10:17:43;;;;;;;3.33;1.10;;;;;;;19.88;65.47;100915.00;5113761;28;20448;-65
2023/09/01 10:20:12;;;;;;;2.40;0.90;;;;;;;19.86;64.31;100924.75;5114009;28;20565;-65
2023/09/01 10:22:39;;;;;;;2.50;0.80;;;;;;;19.80;63.28;100932.47;5113919;28;20432;-65
2023/09/01 10:25:11;;;;;;;2.23;0.70;;;;;;;19.74;65.74;100928.38;5113868;28;20439;-65
2023/09/01 10:27:38;;;;;;;2.30;0.80;;;;;;;19.68;65.45;100918.81;5114045;28;20448;-65
2023/09/01 10:30:24;;;;;;;2.23;0.70;;;;;;;19.58;66.05;100933.06;5113602;28;20886;-65
2023/09/01 10:32:51;;;;;;;2.67;0.87;;;;;;;19.55;65.31;100929.03;5117507;28;20467;-65
2023/09/01 10:35:37;;;;;;;2.20;0.60;;;;;;;19.59;64.94;100926.41;5117966;28;20828;-65
2023/09/01 10:38:13;;;;;;;2.60;0.70;;;;;;;19.68;65.05;100934.50;5118039;28;20510;-65
2023/09/01 10:40:43;;;;;;;2.40;0.80;;;;;;;19.79;63.94;100941.06;5117687;28;20470;-66
2023/09/01 10:43:10;;;;;;;2.20;0.80;;;;;;;19.78;62.80;100934.75;5117977;28;20428;-66
2023/09/01 10:45:37;;;;;;;2.30;0.70;;;;;;;19.74;63.85;100936.63;5117478;28;20508;-66
2023/09/01 10:48:04;;;;;;;2.20;0.70;;;;;;;19.73;63.21;100932.28;5117842;28;20474;-67
2023/09/01 10:50:34;;;;;;;2.20;0.80;;;;;;;19.82;62.29;100930.16;5117788;28;20496;-66
2023/09/01 10:53:31;;;;;;;2.17;0.60;;;;;;;19.95;62.62;100930.84;5117417;28;20857;-66
2023/09/01 10:56:12;;;;;;;3.90;0.80;;;;;;;19.97;63.15;100925.81;5117842;28;20474;-66
2023/09/01 10:58:50;;;;;;;2.70;1.07;;;;;;;20.08;63.36;100921.34;5117761;28;20431;-66
2023/09/01 11:01:31;;;;;;;2.10;0.60;;;;;;;20.22;62.74;100925.59;5117685;28;20513;-66
2023/09/01 11:04:28;;;;;;;2.20;0.73;;;;;;;20.26;63.59;100930.00;5117608;28;20522;-66
2023/09/01 11:07:06;;;;;;;2.30;0.60;;;;;;;20.30;64.53;100922.63;5117139;28;20497;-66
2023/09/01 11:09:55;;;;;;;2.23;0.67;;;;;;;20.55;62.63;100933.44;5117407;28;20783;-66
2023/09/01 11:12:35;;;;;;;2.20;0.83;;;;;;;20.69;61.55;100938.44;5117222;28;20431;-66
2023/09/01 11:15:04;;;;;;;2.73;0.70;;;;;;;20.47;62.13;100926.16;5117182;28;20495;-66
2023/09/01 11:17:45;;;;;;;2.10;0.70;;;;;;;20.53;61.95;100921.97;5116836;28;20466;-65
2023/09/01 11:20:16;;;;;;;2.67;0.80;;;;;;;20.59;62.84;100931.56;5117264;28;20435;-65
2023/09/01 11:22:43;;;;;;;2.30;0.90;;;;;;;20.87;60.10;100934.09;5117331;28;20420;-65
2023/09/01 11:25:13;;;;;;;2.70;1.00;;;;;;;21.14;58.86;100938.59;5117242;28;20546;-66
2023/09/01 11:27:44;;;;;;;2.80;1.00;;;;;;;21.59;57.54;100934.31;5117441;28;20525;-65